createdAt,value
2022-11-14T00:00:46.871Z,14.42
2022-11-14T00:02:07.234Z,14.42
2022-11-14T00:03:27.824Z,14.44
2022-11-14T00:04:48.152Z,14.44
2022-11-14T00:06:08.472Z,14.43
2022-11-14T00:07:33.447Z,14.43
2022-11-14T00:08:53.937Z,14.42
2022-11-14T00:10:14.760Z,14.42
2022-11-14T00:11:35.077Z,14.39
2022-11-14T00:12:55.196Z,14.39
2022-11-14T00:14:15.695Z,14.38
2022-11-14T00:15:35.921Z,14.36
2022-11-14T00:16:56.306Z,14.33
2022-11-14T00:18:17.677Z,14.27
2022-11-14T00:19:38.280Z,14.24
2022-11-14T00:20:58.227Z,14.23
2022-11-14T00:22:18.244Z,14.20
2022-11-14T00:23:38.443Z,14.18
2022-11-14T00:24:59.396Z,14.17
2022-11-14T00:26:19.675Z,14.17
2022-11-14T00:27:40.275Z,14.16
2022-11-14T00:29:00.729Z,14.14
2022-11-14T00:30:21.328Z,14.15
2022-11-14T00:31:42.038Z,14.13
2022-11-14T00:33:02.206Z,14.16
2022-11-14T00:34:22.502Z,14.18
2022-11-14T00:35:50.269Z,14.19
2022-11-14T00:37:10.821Z,14.19
2022-11-14T00:38:31.319Z,14.20
2022-11-14T00:39:52.297Z,14.21
2022-11-14T00:41:12.856Z,14.22
2022-11-14T00:42:34.040Z,14.23
2022-11-14T00:43:54.418Z,14.22
2022-11-14T00:45:14.934Z,14.22
2022-11-14T00:46:35.081Z,14.19
2022-11-14T00:47:55.666Z,14.19
2022-11-14T00:49:16.264Z,14.20
2022-11-14T00:50:37.451Z,14.20
2022-11-14T00:51:57.987Z,14.20
2022-11-14T00:53:18.427Z,14.20
2022-11-14T00:54:38.456Z,14.20
2022-11-14T00:55:58.897Z,14.20
2022-11-14T00:57:19.237Z,14.18
2022-11-14T00:58:40.472Z,14.17
2022-11-14T01:00:01.142Z,14.16
2022-11-14T01:01:21.677Z,14.15
2022-11-14T01:02:41.767Z,14.12
2022-11-14T01:04:02.058Z,14.05
2022-11-14T01:05:24.102Z,14.04
2022-11-14T01:06:44.440Z,14.00
2022-11-14T01:08:04.517Z,13.97
2022-11-14T01:09:24.856Z,13.94
2022-11-14T01:10:49.094Z,13.88
2022-11-14T01:12:09.310Z,13.84
2022-11-14T01:13:32.125Z,13.82
2022-11-14T01:14:52.599Z,13.79
2022-11-14T01:16:13.025Z,13.76
2022-11-14T01:17:33.486Z,13.73
2022-11-14T01:18:54.132Z,13.70
2022-11-14T01:20:15.818Z,13.67
2022-11-14T01:21:36.155Z,13.66
2022-11-14T01:22:56.482Z,13.64
2022-11-14T01:24:16.658Z,13.61
2022-11-14T01:25:37.682Z,13.60
2022-11-14T01:26:58.116Z,13.58
2022-11-14T01:28:19.273Z,13.59
2022-11-14T01:29:39.960Z,13.60
2022-11-14T01:31:19.639Z,13.59
2022-11-14T01:32:40.287Z,13.60
2022-11-14T01:34:00.359Z,13.59
2022-11-14T01:35:20.626Z,13.60
2022-11-14T01:36:41.566Z,13.59
2022-11-14T01:38:03.185Z,13.60
2022-11-14T01:39:23.326Z,13.61
2022-11-14T01:40:44.723Z,13.62
2022-11-14T01:42:05.667Z,13.63
2022-11-14T01:43:32.807Z,13.64
2022-11-14T01:44:53.284Z,13.64
2022-11-14T01:46:33.941Z,13.63
2022-11-14T01:47:54.233Z,13.63
2022-11-14T01:49:19.942Z,13.60
2022-11-14T01:50:40.037Z,13.63
2022-11-14T01:52:13.104Z,13.64
2022-11-14T01:53:33.774Z,13.66
2022-11-14T01:54:54.936Z,13.68
2022-11-14T01:56:19.584Z,13.64
2022-11-14T01:57:45.735Z,13.67
2022-11-14T01:59:19.643Z,13.69
2022-11-14T02:00:41.197Z,13.71
2022-11-14T02:02:08.822Z,13.72
2022-11-14T02:03:29.151Z,13.74
2022-11-14T02:05:12.570Z,13.75
2022-11-14T02:06:34.170Z,13.76
2022-11-14T02:07:54.839Z,13.77
2022-11-14T02:09:15.618Z,13.77
2022-11-14T02:10:35.663Z,13.78
2022-11-14T02:11:58.216Z,13.76
2022-11-14T02:13:18.748Z,13.76
2022-11-14T02:14:39.785Z,13.77
2022-11-14T02:16:00.959Z,13.74
2022-11-14T02:17:29.598Z,13.74
2022-11-14T02:18:51.371Z,13.77
2022-11-14T02:20:12.287Z,13.76
2022-11-14T02:21:32.907Z,13.74
2022-11-14T02:22:54.464Z,13.72
2022-11-14T02:24:14.803Z,13.72
2022-11-14T02:25:34.927Z,13.73
2022-11-14T02:26:55.384Z,13.73
2022-11-14T02:28:15.760Z,13.73
2022-11-14T02:29:36.842Z,13.73
2022-11-14T02:31:27.775Z,13.73
2022-11-14T02:34:29.424Z,13.68
2022-11-14T02:35:49.791Z,13.67
2022-11-14T02:37:10.210Z,13.69
2022-11-14T02:38:30.977Z,13.68
2022-11-14T02:39:52.194Z,13.69
2022-11-14T02:41:12.695Z,13.69
2022-11-14T02:42:33.008Z,13.68
2022-11-14T02:43:53.805Z,13.67
2022-11-14T02:45:14.140Z,13.67
2022-11-14T02:46:34.532Z,13.67
2022-11-14T02:47:54.840Z,13.66
2022-11-14T02:49:15.218Z,13.64
2022-11-14T02:50:35.536Z,13.64
2022-11-14T02:51:55.906Z,13.62
2022-11-14T02:53:16.410Z,13.61
2022-11-14T02:54:36.583Z,13.62
2022-11-14T02:55:57.046Z,13.62
2022-11-14T02:57:17.095Z,13.59
2022-11-14T02:58:37.997Z,13.59
2022-11-14T02:59:58.421Z,13.58
2022-11-14T03:01:21.415Z,13.57
2022-11-14T03:02:42.225Z,13.57
2022-11-14T03:04:02.791Z,13.60
2022-11-14T03:05:22.737Z,13.60
2022-11-14T03:06:43.049Z,13.58
2022-11-14T03:08:03.512Z,13.57
2022-11-14T03:09:23.879Z,13.53
2022-11-14T03:10:44.201Z,13.52
2022-11-14T03:12:04.895Z,13.49
2022-11-14T03:13:29.592Z,13.46
2022-11-14T03:14:50.102Z,13.42
2022-11-14T03:16:12.195Z,13.40
2022-11-14T03:17:33.815Z,13.37
2022-11-14T03:18:54.500Z,13.36
2022-11-14T03:20:14.912Z,13.37
2022-11-14T03:21:35.284Z,13.34
2022-11-14T03:22:55.495Z,13.37
2022-11-14T03:24:15.857Z,13.38
2022-11-14T03:25:36.627Z,13.39
2022-11-14T03:26:56.958Z,13.39
2022-11-14T03:28:17.618Z,13.40
2022-11-14T03:29:38.163Z,13.42
2022-11-14T03:30:58.547Z,13.43
2022-11-14T03:32:18.976Z,13.43
2022-11-14T03:33:39.701Z,13.42
2022-11-14T03:35:00.274Z,13.38
2022-11-14T03:36:20.948Z,13.37
2022-11-14T03:37:41.231Z,13.38
2022-11-14T03:39:01.433Z,13.40
2022-11-14T03:40:22.331Z,13.41
2022-11-14T03:41:42.905Z,13.42
2022-11-14T03:43:03.127Z,13.42
2022-11-14T03:44:23.539Z,13.42
2022-11-14T03:45:44.017Z,13.41
2022-11-14T03:47:04.457Z,13.39
2022-11-14T03:48:24.485Z,13.38
2022-11-14T03:49:44.758Z,13.36
2022-11-14T03:51:05.198Z,13.35
2022-11-14T03:52:25.559Z,13.33
2022-11-14T03:53:46.052Z,13.33
2022-11-14T03:55:06.427Z,13.35
2022-11-14T03:56:26.873Z,13.36
2022-11-14T03:57:47.246Z,13.36
2022-11-14T03:59:07.613Z,13.37
2022-11-14T04:00:28.140Z,13.39
2022-11-14T04:01:48.541Z,13.39
2022-11-14T04:03:08.419Z,13.40
2022-11-14T04:04:28.619Z,13.41
2022-11-14T04:05:48.864Z,13.42
2022-11-14T04:07:09.354Z,13.43
2022-11-14T04:08:30.211Z,13.43
2022-11-14T04:09:51.400Z,13.44
2022-11-14T04:11:11.673Z,13.44
2022-11-14T04:12:31.743Z,13.45
2022-11-14T04:13:51.780Z,13.47
2022-11-14T04:15:11.823Z,13.48
2022-11-14T04:16:32.312Z,13.47
2022-11-14T04:17:52.348Z,13.47
2022-11-14T04:19:12.530Z,13.47
2022-11-14T04:20:33.093Z,13.45
2022-11-14T04:21:53.389Z,13.42
2022-11-14T04:23:13.791Z,13.43
2022-11-14T04:24:34.301Z,13.41
2022-11-14T04:25:55.911Z,13.39
2022-11-14T04:27:16.477Z,13.39
2022-11-14T04:28:36.366Z,13.38
2022-11-14T04:29:56.647Z,13.39
2022-11-14T04:31:16.585Z,13.37
2022-11-14T04:32:36.468Z,13.36
2022-11-14T04:33:56.549Z,13.36
2022-11-14T04:35:16.617Z,13.34
2022-11-14T04:36:37.012Z,13.34
2022-11-14T04:37:57.318Z,13.31
2022-11-14T04:39:17.694Z,13.28
2022-11-14T04:40:38.099Z,13.27
2022-11-14T04:41:58.962Z,13.26
2022-11-14T04:43:19.983Z,13.27
2022-11-14T04:44:40.282Z,13.25
2022-11-14T04:46:00.962Z,13.22
2022-11-14T04:47:21.417Z,13.21
2022-11-14T04:48:41.826Z,13.18
2022-11-14T04:50:02.807Z,13.17
2022-11-14T04:51:23.428Z,13.16
2022-11-14T04:52:43.792Z,13.15
2022-11-14T04:54:04.164Z,13.16
2022-11-14T04:55:24.165Z,13.15
2022-11-14T04:56:45.049Z,13.15
2022-11-14T04:58:05.362Z,13.14
2022-11-14T04:59:26.012Z,13.15
2022-11-14T05:00:46.355Z,13.12
2022-11-14T05:02:06.805Z,13.11
2022-11-14T05:03:26.877Z,13.09
2022-11-14T05:04:47.999Z,13.07
2022-11-14T05:06:09.201Z,13.07
2022-11-14T05:07:29.961Z,13.04
2022-11-14T05:08:50.402Z,13.01
2022-11-14T05:10:10.369Z,13.01
2022-11-14T05:11:30.368Z,13.00
2022-11-14T05:12:53.980Z,13.01
2022-11-14T05:14:14.178Z,13.01
2022-11-14T05:15:34.550Z,12.99
2022-11-14T05:16:54.724Z,12.99
2022-11-14T05:18:15.723Z,12.98
2022-11-14T05:19:36.109Z,12.99
2022-11-14T05:20:59.917Z,13.00
2022-11-14T05:22:20.362Z,12.99
2022-11-14T05:23:40.826Z,13.00
2022-11-14T05:25:01.110Z,13.00
2022-11-14T05:26:21.077Z,13.03
2022-11-14T05:27:41.353Z,13.05
2022-11-14T05:29:01.753Z,13.06
2022-11-14T05:30:21.950Z,13.06
2022-11-14T05:31:41.900Z,13.07
2022-11-14T05:33:02.746Z,13.07
2022-11-14T05:34:23.168Z,13.08
2022-11-14T05:35:43.586Z,13.07
2022-11-14T05:37:03.911Z,13.09
2022-11-14T05:38:24.020Z,13.07
2022-11-14T05:39:44.421Z,13.06
2022-11-14T05:41:07.232Z,13.03
2022-11-14T05:42:27.947Z,12.98
2022-11-14T05:43:48.207Z,12.98
2022-11-14T05:45:09.054Z,12.96
2022-11-14T05:46:29.291Z,12.95
2022-11-14T05:47:51.115Z,12.94
2022-11-14T05:49:11.629Z,12.92
2022-11-14T05:50:31.669Z,12.90
2022-11-14T05:51:51.982Z,12.88
2022-11-14T05:53:12.235Z,12.88
2022-11-14T05:54:32.762Z,12.87
2022-11-14T05:55:53.616Z,12.86
2022-11-14T05:57:13.909Z,12.86
2022-11-14T05:58:34.933Z,12.85
2022-11-14T05:59:56.079Z,12.84
2022-11-14T06:01:17.749Z,12.83
2022-11-14T06:02:37.786Z,12.82
2022-11-14T06:03:57.956Z,12.82
2022-11-14T06:05:18.358Z,12.83
2022-11-14T06:06:38.541Z,12.82
2022-11-14T06:07:58.865Z,12.81
2022-11-14T06:09:19.348Z,12.82
2022-11-14T06:10:39.404Z,12.82
2022-11-14T06:11:59.257Z,12.81
2022-11-14T06:13:19.280Z,12.82
2022-11-14T06:14:39.740Z,12.82
2022-11-14T06:16:04.178Z,12.81
2022-11-14T06:17:24.081Z,12.81
2022-11-14T06:18:44.604Z,12.81
2022-11-14T06:20:05.351Z,12.82
2022-11-14T06:21:29.844Z,12.81
2022-11-14T06:22:53.515Z,12.80
2022-11-14T06:24:13.540Z,12.81
2022-11-14T06:25:33.422Z,12.81
2022-11-14T06:26:53.612Z,12.82
2022-11-14T06:28:13.590Z,12.81
2022-11-14T06:29:35.618Z,12.80
2022-11-14T06:30:59.308Z,12.79
2022-11-14T06:32:19.230Z,12.78
2022-11-14T06:33:39.236Z,12.77
2022-11-14T06:34:59.350Z,12.76
2022-11-14T06:36:20.054Z,12.78
2022-11-14T06:37:40.218Z,12.79
2022-11-14T06:39:00.677Z,12.81
2022-11-14T06:40:21.051Z,12.83
2022-11-14T06:41:41.033Z,12.83
2022-11-14T06:43:01.026Z,12.82
2022-11-14T06:44:26.451Z,12.83
2022-11-14T06:45:52.690Z,12.82
2022-11-14T06:47:12.741Z,12.83
2022-11-14T06:48:33.420Z,12.84
2022-11-14T06:49:54.382Z,12.84
2022-11-14T06:51:15.355Z,12.85
2022-11-14T06:52:35.713Z,12.86
2022-11-14T06:53:56.836Z,12.87
2022-11-14T06:55:20.894Z,12.86
2022-11-14T06:56:44.340Z,12.86
2022-11-14T06:58:04.353Z,12.85
2022-11-14T06:59:24.489Z,12.83
2022-11-14T07:00:44.803Z,12.83
2022-11-14T07:02:04.936Z,12.84
2022-11-14T07:03:25.111Z,12.84
2022-11-14T07:04:45.571Z,12.83
2022-11-14T07:06:06.550Z,12.80
2022-11-14T07:07:28.723Z,12.79
2022-11-14T07:08:49.491Z,12.79
2022-11-14T07:10:09.737Z,12.80
2022-11-14T07:11:31.467Z,12.79
2022-11-14T07:12:51.348Z,12.79
2022-11-14T07:14:11.635Z,12.80
2022-11-14T07:15:31.592Z,12.80
2022-11-14T07:16:51.487Z,12.80
2022-11-14T07:18:11.861Z,12.79
2022-11-14T07:19:33.040Z,12.78
2022-11-14T07:20:56.894Z,12.78
2022-11-14T07:22:17.143Z,12.78
2022-11-14T07:23:37.609Z,12.76
2022-11-14T07:24:57.870Z,12.78
2022-11-14T07:26:18.116Z,12.76
2022-11-14T07:27:38.939Z,12.77
2022-11-14T07:29:02.395Z,12.78
2022-11-14T07:30:23.495Z,12.79
2022-11-14T07:31:43.633Z,12.78
2022-11-14T07:33:03.820Z,12.79
2022-11-14T07:34:24.164Z,12.81
2022-11-14T07:35:44.417Z,12.83
2022-11-14T07:37:04.768Z,12.83
2022-11-14T07:38:24.755Z,12.83
2022-11-14T07:39:45.588Z,12.83
2022-11-14T07:41:09.679Z,12.83
2022-11-14T07:42:29.803Z,12.82
2022-11-14T07:43:49.859Z,12.81
2022-11-14T07:45:10.567Z,12.79
2022-11-14T07:46:30.407Z,12.79
2022-11-14T07:47:53.457Z,12.79
2022-11-14T07:49:14.075Z,12.75
2022-11-14T07:50:34.822Z,12.74
2022-11-14T07:51:55.225Z,12.74
2022-11-14T07:53:17.113Z,12.74
2022-11-14T07:54:38.501Z,12.74
2022-11-14T07:56:03.867Z,12.71
2022-11-14T07:57:24.263Z,12.70
2022-11-14T07:58:44.707Z,12.68
2022-11-14T08:00:05.123Z,12.67
2022-11-14T08:01:25.546Z,12.65
2022-11-14T08:02:46.502Z,12.64
2022-11-14T08:04:06.862Z,12.64
2022-11-14T08:05:26.865Z,12.64
2022-11-14T08:06:47.319Z,12.65
2022-11-14T08:08:07.349Z,12.60
2022-11-14T08:09:27.331Z,12.61
2022-11-14T08:10:47.280Z,12.61
2022-11-14T08:12:07.260Z,12.63
2022-11-14T08:13:33.204Z,12.64
2022-11-14T08:14:53.905Z,12.64
2022-11-14T08:16:14.368Z,12.63
2022-11-14T08:17:34.805Z,12.62
2022-11-14T08:18:54.982Z,12.63
2022-11-14T08:20:15.189Z,12.65
2022-11-14T08:21:35.537Z,12.66
2022-11-14T08:23:06.503Z,12.64
2022-11-14T08:24:26.723Z,12.61
2022-11-14T08:25:46.945Z,12.60
2022-11-14T08:27:07.432Z,12.61
2022-11-14T08:28:28.637Z,12.58
2022-11-14T08:29:50.477Z,12.58
2022-11-14T08:31:12.690Z,12.60
2022-11-14T08:32:33.318Z,12.61
2022-11-14T08:33:53.635Z,12.62
2022-11-14T08:35:14.216Z,12.62
2022-11-14T08:36:34.312Z,12.62
2022-11-14T08:37:54.440Z,12.62
2022-11-14T08:39:14.490Z,12.64
2022-11-14T08:40:34.449Z,12.65
2022-11-14T08:41:54.993Z,12.67
2022-11-14T08:43:14.881Z,12.70
2022-11-14T08:44:34.876Z,12.71
2022-11-14T08:46:01.546Z,12.73
2022-11-14T08:47:22.120Z,12.74
2022-11-14T08:48:42.126Z,12.77
2022-11-14T08:50:02.065Z,12.79
2022-11-14T08:51:22.342Z,12.81
2022-11-14T08:52:42.523Z,12.83
2022-11-14T08:54:02.626Z,12.85
2022-11-14T08:55:22.610Z,12.89
2022-11-14T08:56:42.867Z,12.89
2022-11-14T08:58:02.940Z,12.91
2022-11-14T08:59:23.128Z,12.92
2022-11-14T09:00:43.207Z,12.93
2022-11-14T09:02:03.158Z,12.93
2022-11-14T09:03:23.120Z,12.92
2022-11-14T09:04:43.594Z,12.91
2022-11-14T09:06:04.142Z,12.91
2022-11-14T09:07:24.189Z,12.91
2022-11-14T09:08:44.783Z,12.89
2022-11-14T09:10:05.345Z,12.88
2022-11-14T09:11:25.546Z,12.89
2022-11-14T09:12:45.809Z,12.90
2022-11-14T09:14:06.354Z,12.90
2022-11-14T09:15:29.501Z,12.89
2022-11-14T09:16:49.786Z,12.88
2022-11-14T09:18:11.032Z,12.89
2022-11-14T09:19:30.990Z,12.89
2022-11-14T09:20:51.171Z,12.90
2022-11-14T09:22:11.375Z,12.90
2022-11-14T09:23:32.441Z,12.90
2022-11-14T09:24:52.634Z,12.92
2022-11-14T09:26:12.695Z,12.96
2022-11-14T09:27:32.627Z,12.99
2022-11-14T09:28:52.784Z,13.04
2022-11-14T09:30:13.190Z,13.03
2022-11-14T09:31:33.639Z,13.01
2022-11-14T09:32:58.287Z,12.99
2022-11-14T09:34:18.826Z,13.02
2022-11-14T09:35:38.949Z,13.02
2022-11-14T09:36:58.694Z,13.03
2022-11-14T09:38:18.788Z,13.05
2022-11-14T09:39:40.156Z,13.08
2022-11-14T09:41:03.127Z,13.10
2022-11-14T09:42:38.818Z,13.10
2022-11-14T09:44:20.770Z,13.07
2022-11-14T09:45:46.464Z,13.08
2022-11-14T09:47:14.506Z,13.03
2022-11-14T09:48:38.431Z,13.04
2022-11-14T09:50:06.395Z,13.02
2022-11-14T09:51:36.791Z,13.01
2022-11-14T09:52:58.463Z,13.00
2022-11-14T09:54:23.712Z,13.03
2022-11-14T09:55:44.549Z,13.02
2022-11-14T09:57:13.162Z,12.98
2022-11-14T09:58:33.641Z,12.93
2022-11-14T09:59:55.267Z,12.91
2022-11-14T10:01:34.404Z,12.90
2022-11-14T10:02:55.033Z,12.90
2022-11-14T10:04:20.405Z,12.91
2022-11-14T10:05:46.647Z,12.89
2022-11-14T10:07:19.089Z,12.87
2022-11-14T10:08:48.971Z,12.80
2022-11-14T10:10:12.069Z,12.73
2022-11-14T10:11:34.166Z,12.67
2022-11-14T10:12:54.247Z,12.61
2022-11-14T10:14:22.197Z,12.60
2022-11-14T10:15:48.197Z,12.55
2022-11-14T10:17:11.888Z,12.52
2022-11-14T10:18:36.184Z,12.50
2022-11-14T10:20:01.364Z,12.50
2022-11-14T10:21:41.559Z,12.49
2022-11-14T10:23:07.608Z,12.51
2022-11-14T10:24:33.691Z,12.53
2022-11-14T10:25:55.737Z,12.56
2022-11-14T10:27:23.247Z,12.60
2022-11-14T10:28:46.120Z,12.64
2022-11-14T10:30:11.693Z,12.69
2022-11-14T10:31:41.408Z,12.71
2022-11-14T10:33:01.818Z,12.76
2022-11-14T10:34:33.114Z,12.78
2022-11-14T10:36:13.509Z,12.80
2022-11-14T10:37:52.483Z,12.79
2022-11-14T10:39:17.293Z,12.80
2022-11-14T10:40:40.293Z,12.81
2022-11-14T10:42:07.493Z,12.78
2022-11-14T10:43:34.338Z,12.74
2022-11-14T10:45:02.835Z,12.70
2022-11-14T10:46:26.232Z,12.69
2022-11-14T10:47:49.405Z,12.66
2022-11-14T10:49:15.909Z,12.63
2022-11-14T10:50:57.159Z,12.60
2022-11-14T10:52:19.539Z,12.59
2022-11-14T10:53:46.102Z,12.63
2022-11-14T10:55:07.800Z,12.67
2022-11-14T10:56:29.296Z,12.71
2022-11-14T10:57:49.456Z,12.76
2022-11-14T10:59:09.243Z,12.80
2022-11-14T11:00:29.499Z,12.82
2022-11-14T11:01:49.302Z,12.85
2022-11-14T11:03:09.290Z,12.85
2022-11-14T11:04:33.502Z,12.86
2022-11-14T11:05:57.298Z,12.88
2022-11-14T11:07:43.139Z,12.86
2022-11-14T11:09:31.538Z,12.84
2022-11-14T11:11:15.327Z,12.75
2022-11-14T11:12:41.758Z,12.71
2022-11-14T11:14:01.840Z,12.73
2022-11-14T11:15:22.952Z,12.73
2022-11-14T11:16:45.822Z,12.73
2022-11-14T11:18:24.965Z,12.69
2022-11-14T11:19:47.167Z,12.64
2022-11-14T11:21:07.786Z,12.58
2022-11-14T11:22:34.488Z,12.56
2022-11-14T11:23:55.828Z,12.52
2022-11-14T11:25:29.261Z,12.45
2022-11-14T11:27:09.358Z,12.37
2022-11-14T11:28:30.151Z,12.31
2022-11-14T11:30:01.336Z,12.29
2022-11-14T11:31:21.564Z,12.30
2022-11-14T11:32:41.976Z,12.28
2022-11-14T11:34:03.036Z,12.26
2022-11-14T11:35:23.030Z,12.23
2022-11-14T11:36:47.196Z,12.25
2022-11-14T11:38:11.476Z,12.22
2022-11-14T11:39:37.728Z,12.22
2022-11-14T11:41:25.980Z,12.22
2022-11-14T11:43:37.451Z,12.19
2022-11-14T11:44:49.591Z,12.15
2022-11-14T11:46:20.716Z,12.14
2022-11-14T11:47:42.318Z,12.11
2022-11-14T11:49:09.580Z,12.09
2022-11-14T11:50:29.905Z,12.07
2022-11-14T11:51:52.442Z,12.06
2022-11-14T11:53:15.765Z,12.04
2022-11-14T11:54:44.519Z,12.04
2022-11-14T11:56:24.799Z,12.06
2022-11-14T11:57:50.940Z,12.09
2022-11-14T11:59:21.432Z,12.09
2022-11-14T12:00:41.465Z,12.05
2022-11-14T12:02:03.586Z,12.00
2022-11-14T12:03:24.950Z,12.00
2022-11-14T12:04:45.582Z,11.99
2022-11-14T12:06:08.833Z,11.96
2022-11-14T12:07:44.359Z,11.94
2022-11-14T12:09:19.031Z,11.98
2022-11-14T12:10:40.567Z,11.96
2022-11-14T12:12:02.827Z,11.95
2022-11-14T12:13:42.090Z,11.93
2022-11-14T12:15:02.503Z,11.92
2022-11-14T12:16:41.594Z,11.92
2022-11-14T12:18:10.772Z,11.91
2022-11-14T12:19:38.760Z,11.91
2022-11-14T12:21:01.776Z,11.90
2022-11-14T12:22:39.658Z,11.90
2022-11-14T12:24:35.428Z,11.90
2022-11-14T12:25:55.639Z,11.91
2022-11-14T12:27:34.974Z,11.90
2022-11-14T12:29:14.064Z,11.91
2022-11-14T12:30:35.169Z,11.90
2022-11-14T12:32:03.961Z,11.87
2022-11-14T12:33:27.434Z,11.85
2022-11-14T12:34:48.707Z,11.82
2022-11-14T12:36:10.721Z,11.83
2022-11-14T12:37:33.973Z,11.83
2022-11-14T12:38:54.849Z,11.82
2022-11-14T12:40:22.620Z,11.79
2022-11-14T12:41:43.018Z,11.80
2022-11-14T12:43:04.803Z,11.78
2022-11-14T12:44:29.117Z,11.75
2022-11-14T12:45:49.546Z,11.75
2022-11-14T12:47:10.408Z,11.72
2022-11-14T12:48:32.233Z,11.67
2022-11-14T12:49:52.308Z,11.62
2022-11-14T12:51:24.949Z,11.61
2022-11-14T12:52:53.630Z,11.56
2022-11-14T12:54:32.159Z,11.51
2022-11-14T12:55:53.060Z,11.50
2022-11-14T12:57:38.313Z,11.47
2022-11-14T12:59:04.536Z,11.45
2022-11-14T13:00:25.067Z,11.43
2022-11-14T13:01:56.144Z,11.42
2022-11-14T13:03:16.641Z,11.42
2022-11-14T13:04:39.426Z,11.45
2022-11-14T13:06:10.937Z,11.44
2022-11-14T13:07:37.204Z,11.43
2022-11-14T13:09:03.768Z,11.46
2022-11-14T13:10:27.248Z,11.47
2022-11-14T13:12:06.819Z,11.49
2022-11-14T13:13:46.315Z,11.45
2022-11-14T13:15:41.548Z,11.48
2022-11-14T13:17:36.267Z,11.43
2022-11-14T13:19:33.130Z,11.40
2022-11-14T13:21:20.020Z,11.35
2022-11-14T13:22:41.230Z,11.28
2022-11-14T13:24:01.919Z,11.30
2022-11-14T13:25:22.941Z,11.28
2022-11-14T13:26:44.557Z,11.26
2022-11-14T13:28:40.168Z,11.27
2022-11-14T13:30:02.101Z,11.25
2022-11-14T13:31:45.830Z,11.29
2022-11-14T13:33:05.884Z,11.30
2022-11-14T13:34:32.111Z,11.31
2022-11-14T13:35:59.517Z,11.28
2022-11-14T13:37:41.510Z,11.30
2022-11-14T13:39:10.842Z,11.32
2022-11-14T13:40:38.212Z,11.27
2022-11-14T13:42:16.827Z,11.25
2022-11-14T13:43:45.710Z,11.26
2022-11-14T13:45:24.974Z,11.25
2022-11-14T13:46:45.509Z,11.22
2022-11-14T13:48:24.420Z,11.25
2022-11-14T13:49:58.592Z,11.21
2022-11-14T13:53:01.440Z,11.12
2022-11-14T13:54:21.410Z,11.08
2022-11-14T13:56:06.596Z,11.05
2022-11-14T13:57:29.725Z,11.05
2022-11-14T13:59:13.817Z,11.03
2022-11-14T14:01:00.097Z,11.03
2022-11-14T14:02:40.043Z,11.02
2022-11-14T14:04:03.677Z,11.01
2022-11-14T14:05:29.642Z,10.99
2022-11-14T14:07:08.873Z,11.01
2022-11-14T14:08:34.999Z,10.99
2022-11-14T14:09:58.313Z,11.00
2022-11-14T14:11:30.701Z,10.99
2022-11-14T14:12:53.567Z,11.03
2022-11-14T14:14:28.366Z,11.03
2022-11-14T14:15:51.264Z,11.02
2022-11-14T14:17:14.854Z,11.02
2022-11-14T14:18:40.837Z,11.00
2022-11-14T14:20:21.274Z,10.94
2022-11-14T14:21:50.945Z,10.89
2022-11-14T14:23:23.971Z,10.87
2022-11-14T14:25:04.040Z,10.86
2022-11-14T14:26:29.936Z,10.85
2022-11-14T14:27:50.213Z,10.85
2022-11-14T14:29:24.576Z,10.86
2022-11-14T14:31:00.842Z,10.85
2022-11-14T14:32:21.268Z,10.86
2022-11-14T14:33:45.564Z,10.87
2022-11-14T14:35:20.556Z,10.87
2022-11-14T14:36:48.167Z,10.84
2022-11-14T14:38:10.481Z,10.81
2022-11-14T14:39:30.936Z,10.82
2022-11-14T14:40:53.185Z,10.80
2022-11-14T14:42:17.035Z,10.78
2022-11-14T14:43:37.567Z,10.74
2022-11-14T14:44:58.217Z,10.71
2022-11-14T14:46:29.296Z,10.71
2022-11-14T14:48:04.687Z,10.72
2022-11-14T14:49:35.890Z,10.69
2022-11-14T14:50:57.383Z,10.65
2022-11-14T14:52:31.117Z,10.66
2022-11-14T14:53:52.367Z,10.66
2022-11-14T14:55:23.348Z,10.67
2022-11-14T14:56:51.888Z,10.65
2022-11-14T14:58:18.267Z,10.62
2022-11-14T14:59:44.285Z,10.60
2022-11-14T15:01:06.337Z,10.57
2022-11-14T15:02:27.729Z,10.56
2022-11-14T15:03:49.469Z,10.54
2022-11-14T15:05:09.712Z,10.50
2022-11-14T15:06:34.215Z,10.50
2022-11-14T15:07:59.482Z,10.49
2022-11-14T15:09:27.488Z,10.45
2022-11-14T15:10:47.770Z,10.45
2022-11-14T15:12:07.987Z,10.47
2022-11-14T15:13:29.977Z,10.46
2022-11-14T15:14:51.317Z,10.46
2022-11-14T15:16:11.663Z,10.43
2022-11-14T15:17:35.847Z,10.43
2022-11-14T15:18:57.750Z,10.43
2022-11-14T15:20:22.673Z,10.45
2022-11-14T15:21:43.386Z,10.44
2022-11-14T15:23:10.006Z,10.45
2022-11-14T15:24:30.950Z,10.43
2022-11-14T15:26:00.846Z,10.40
2022-11-14T15:27:21.201Z,10.40
2022-11-14T15:28:41.307Z,10.38
2022-11-14T15:30:03.858Z,10.36
2022-11-14T15:31:24.141Z,10.37
2022-11-14T15:32:49.422Z,10.37
2022-11-14T15:34:24.616Z,10.37
2022-11-14T15:35:45.162Z,10.39
2022-11-14T15:37:15.676Z,10.40
2022-11-14T15:38:44.057Z,10.40
2022-11-14T15:40:21.622Z,10.45
2022-11-14T15:41:42.135Z,10.49
2022-11-14T15:43:22.278Z,10.49
2022-11-14T15:44:42.952Z,10.49
2022-11-14T15:46:03.411Z,10.46
2022-11-14T15:47:25.574Z,10.45
2022-11-14T15:48:45.737Z,10.44
2022-11-14T15:50:21.713Z,10.44
2022-11-14T15:51:43.950Z,10.41
2022-11-14T15:53:06.280Z,10.44
2022-11-14T15:54:26.667Z,10.46
2022-11-14T15:55:47.255Z,10.44
2022-11-14T15:57:14.199Z,10.41
2022-11-14T15:58:34.618Z,10.42
2022-11-14T15:59:54.853Z,10.41
2022-11-14T16:01:18.559Z,10.42
2022-11-14T16:02:46.296Z,10.41
2022-11-14T16:04:14.536Z,10.41
2022-11-14T16:05:34.601Z,10.41
2022-11-14T16:06:54.354Z,10.43
2022-11-14T16:08:14.265Z,10.44
2022-11-14T16:09:34.501Z,10.46
2022-11-14T16:10:54.402Z,10.49
2022-11-14T16:12:14.595Z,10.51
2022-11-14T16:13:34.740Z,10.50
2022-11-14T16:14:55.142Z,10.49
2022-11-14T16:16:15.554Z,10.48
2022-11-14T16:17:37.542Z,10.45
2022-11-14T16:18:57.624Z,10.47
2022-11-14T16:20:18.281Z,10.45
2022-11-14T16:21:38.539Z,10.47
2022-11-14T16:22:58.576Z,10.47
2022-11-14T16:24:20.147Z,10.47
2022-11-14T16:25:40.774Z,10.46
2022-11-14T16:27:01.087Z,10.46
2022-11-14T16:28:20.990Z,10.44
2022-11-14T16:29:40.802Z,10.44
2022-11-14T16:31:00.891Z,10.45
2022-11-14T16:32:22.826Z,10.48
2022-11-14T16:33:43.181Z,10.51
2022-11-14T16:35:03.406Z,10.47
2022-11-14T16:36:24.171Z,10.50
2022-11-14T16:37:44.856Z,10.53
2022-11-14T16:39:10.598Z,10.54
2022-11-14T16:40:31.031Z,10.52
2022-11-14T16:41:50.955Z,10.51
2022-11-14T16:43:13.466Z,10.49
2022-11-14T16:44:39.011Z,10.49
2022-11-14T16:46:05.219Z,10.51
2022-11-14T16:47:25.555Z,10.51
2022-11-14T16:48:45.776Z,10.52
2022-11-14T16:50:06.198Z,10.50
2022-11-14T16:51:47.668Z,10.49
2022-11-14T16:53:07.106Z,10.48
2022-11-14T16:54:27.282Z,10.49
2022-11-14T16:55:47.663Z,10.51
2022-11-14T16:57:08.201Z,10.51
2022-11-14T16:58:28.607Z,10.51
2022-11-14T16:59:50.803Z,10.52
2022-11-14T17:01:18.583Z,10.52
2022-11-14T17:02:42.302Z,10.53
2022-11-14T17:04:02.601Z,10.56
2022-11-14T17:05:22.797Z,10.58
2022-11-14T17:06:43.242Z,10.60
2022-11-14T17:08:04.162Z,10.60
2022-11-14T17:09:24.605Z,10.61
2022-11-14T17:10:45.434Z,10.62
2022-11-14T17:12:05.672Z,10.63
2022-11-14T17:13:28.075Z,10.63
2022-11-14T17:14:48.689Z,10.61
2022-11-14T17:16:09.184Z,10.61
2022-11-14T17:17:30.285Z,10.62
2022-11-14T17:18:54.095Z,10.63
2022-11-14T17:20:15.955Z,10.67
2022-11-14T17:21:36.917Z,10.69
2022-11-14T17:22:57.614Z,10.66
2022-11-14T17:24:18.220Z,10.67
2022-11-14T17:25:38.319Z,10.68
2022-11-14T17:26:59.154Z,10.64
2022-11-14T17:28:19.437Z,10.62
2022-11-14T17:29:39.345Z,10.62
2022-11-14T17:30:59.957Z,10.62
2022-11-14T17:32:20.658Z,10.61
2022-11-14T17:33:40.579Z,10.57
2022-11-14T17:35:00.959Z,10.54
2022-11-14T17:36:21.420Z,10.52
2022-11-14T17:37:42.857Z,10.52
2022-11-14T17:39:03.844Z,10.51
2022-11-14T17:40:24.067Z,10.46
2022-11-14T17:41:44.053Z,10.46
2022-11-14T17:43:04.387Z,10.48
2022-11-14T17:44:24.785Z,10.49
2022-11-14T17:45:52.835Z,10.50
2022-11-14T17:47:12.895Z,10.52
2022-11-14T17:48:33.472Z,10.50
2022-11-14T17:49:53.962Z,10.49
2022-11-14T17:51:15.310Z,10.49
2022-11-14T17:52:36.657Z,10.47
2022-11-14T17:53:57.608Z,10.47
2022-11-14T17:55:18.112Z,10.45
2022-11-14T17:56:42.710Z,10.42